createdAt,value
2023-05-04T00:00:32.829Z,62.32
2023-05-04T00:03:00.784Z,62.26
2023-05-04T00:05:28.806Z,61.98
2023-05-04T00:07:56.706Z,62.72
2023-05-04T00:10:24.600Z,62.87
2023-05-04T00:12:53.945Z,62.46
2023-05-04T00:15:21.884Z,62.97
2023-05-04T00:17:49.822Z,62.95
2023-05-04T00:20:18.311Z,62.61
2023-05-04T00:22:46.197Z,62.79
2023-05-04T00:25:14.161Z,62.83
2023-05-04T00:27:42.101Z,62.65
2023-05-04T00:30:12.410Z,62.33
2023-05-04T00:32:40.376Z,62.82
2023-05-04T00:35:09.460Z,62.75
2023-05-04T00:37:37.352Z,62.55
2023-05-04T00:40:06.177Z,62.26
2023-05-04T00:42:34.477Z,62.51
2023-05-04T00:45:02.353Z,62.64
2023-05-04T00:47:31.651Z,62.52
2023-05-04T00:49:59.592Z,63.06
2023-05-04T00:52:28.416Z,63.19
2023-05-04T00:54:56.411Z,62.82
2023-05-04T00:57:24.356Z,62.69
2023-05-04T00:59:52.300Z,63.27
2023-05-04T01:02:21.171Z,63.00
2023-05-04T01:04:50.503Z,62.98
2023-05-04T01:07:22.721Z,63.01
2023-05-04T01:09:54.489Z,63.23
2023-05-04T01:12:25.947Z,63.12
2023-05-04T01:14:54.962Z,62.76
2023-05-04T01:17:22.921Z,63.27
2023-05-04T01:19:54.053Z,63.65
2023-05-04T01:22:23.850Z,63.30
2023-05-04T01:24:51.953Z,63.76
2023-05-04T01:27:23.330Z,63.37
2023-05-04T01:29:58.299Z,63.51
2023-05-04T01:32:29.420Z,63.17
2023-05-04T01:34:57.848Z,63.34
2023-05-04T01:37:27.323Z,63.32
2023-05-04T01:39:55.331Z,63.43
2023-05-04T01:42:23.257Z,63.64
2023-05-04T01:44:51.823Z,63.57
2023-05-04T01:47:19.688Z,63.76
2023-05-04T01:49:47.579Z,63.26
2023-05-04T01:52:15.821Z,63.22
2023-05-04T01:54:45.110Z,64.13
2023-05-04T01:57:13.014Z,63.77
2023-05-04T01:59:40.949Z,63.97
2023-05-04T02:02:08.965Z,63.67
2023-05-04T02:04:37.104Z,63.66
2023-05-04T02:07:05.049Z,63.75
2023-05-04T02:09:33.101Z,64.01
2023-05-04T02:12:02.713Z,63.73
2023-05-04T02:14:30.608Z,63.79
2023-05-04T02:16:58.524Z,63.93
2023-05-04T02:19:26.910Z,64.44
2023-05-04T02:21:54.836Z,64.20
2023-05-04T02:24:22.739Z,64.29
2023-05-04T02:26:50.660Z,64.07
2023-05-04T02:29:19.978Z,64.18
2023-05-04T02:31:47.954Z,64.47
2023-05-04T02:34:15.946Z,64.03
2023-05-04T02:36:43.970Z,64.14
2023-05-04T02:39:11.851Z,64.39
2023-05-04T02:41:39.811Z,64.46
2023-05-04T02:44:07.721Z,64.72
2023-05-04T02:46:36.994Z,64.66
2023-05-04T02:49:04.880Z,64.50
2023-05-04T02:51:32.823Z,64.55
2023-05-04T02:54:00.786Z,64.15
2023-05-04T02:56:28.705Z,64.55
2023-05-04T02:58:56.604Z,64.65
2023-05-04T03:01:24.537Z,64.49
2023-05-04T03:03:53.913Z,64.55
2023-05-04T03:06:21.788Z,64.70
2023-05-04T03:08:49.726Z,64.27
2023-05-04T03:11:17.689Z,64.24
2023-05-04T03:13:45.556Z,64.52
2023-05-04T03:16:13.513Z,64.50
2023-05-04T03:21:28.904Z,64.17
2023-05-04T03:23:57.041Z,64.17
2023-05-04T03:26:24.942Z,64.60
2023-05-04T03:28:52.850Z,64.72
2023-05-04T03:31:20.817Z,64.75
2023-05-04T03:33:48.703Z,64.46
2023-05-04T03:36:16.840Z,64.49
2023-05-04T03:38:46.788Z,64.46
2023-05-04T03:41:15.519Z,64.67
2023-05-04T03:43:43.537Z,64.68
2023-05-04T03:46:11.610Z,64.60
2023-05-04T03:48:39.541Z,64.52
2023-05-04T03:51:07.650Z,64.61
2023-05-04T03:53:35.892Z,64.36
2023-05-04T03:56:05.342Z,64.45
2023-05-04T03:58:33.223Z,64.18
2023-05-04T04:01:03.372Z,64.31
2023-05-04T04:03:31.919Z,64.25
2023-05-04T04:06:00.194Z,63.99
2023-05-04T04:08:28.151Z,64.32
2023-05-04T04:10:56.088Z,64.08
2023-05-04T04:13:25.485Z,64.44
2023-05-04T04:15:53.448Z,64.05
2023-05-04T04:18:21.375Z,64.35
2023-05-04T04:20:49.296Z,64.41
2023-05-04T04:23:19.306Z,64.22
2023-05-04T04:25:47.392Z,64.08
2023-05-04T04:28:16.062Z,63.80
2023-05-04T04:30:46.291Z,63.94
2023-05-04T04:33:15.089Z,64.09
2023-05-04T04:35:42.974Z,64.05
2023-05-04T04:38:10.989Z,64.33
2023-05-04T04:40:38.887Z,63.79
2023-05-04T04:43:06.768Z,64.15
2023-05-04T04:45:35.756Z,64.17
2023-05-04T04:48:05.348Z,64.27
2023-05-04T04:50:33.399Z,63.39
2023-05-04T04:53:01.294Z,64.02
2023-05-04T04:55:29.171Z,63.67
2023-05-04T04:57:57.128Z,63.85
2023-05-04T05:00:26.209Z,63.64
2023-05-04T05:02:54.319Z,63.43
2023-05-04T05:05:23.687Z,63.62
2023-05-04T05:07:51.559Z,64.02
2023-05-04T05:10:21.169Z,63.57
2023-05-04T05:12:49.852Z,64.21
2023-05-04T05:15:17.935Z,64.04
2023-05-04T05:17:46.241Z,63.52
2023-05-04T05:20:15.336Z,63.36
2023-05-04T05:22:44.662Z,63.78
2023-05-04T05:25:12.610Z,63.78
2023-05-04T05:27:40.492Z,64.06
2023-05-04T05:30:09.191Z,63.82
2023-05-04T05:32:37.184Z,64.23
2023-05-04T05:35:05.626Z,63.94
2023-05-04T05:37:33.858Z,63.63
2023-05-04T05:40:04.741Z,63.89
2023-05-04T05:42:32.806Z,63.85
2023-05-04T05:45:01.839Z,63.94
2023-05-04T05:47:29.768Z,62.95
2023-05-04T05:49:57.738Z,63.37
2023-05-04T05:52:25.739Z,63.85
2023-05-04T05:54:53.696Z,63.44
2023-05-04T05:57:22.999Z,62.49
2023-05-04T05:59:51.015Z,62.74
2023-05-04T06:02:19.003Z,65.72
2023-05-04T06:04:46.994Z,62.88
2023-05-04T06:07:14.978Z,62.86
2023-05-04T06:09:43.011Z,62.87
2023-05-04T06:12:13.573Z,64.17
2023-05-04T06:14:42.854Z,62.56
2023-05-04T06:17:10.899Z,63.01
2023-05-04T06:19:39.216Z,62.87
2023-05-04T06:22:07.698Z,62.44
2023-05-04T06:24:35.716Z,61.67
2023-05-04T06:27:03.648Z,61.91
2023-05-04T06:29:31.538Z,62.20
2023-05-04T06:32:00.962Z,62.60
2023-05-04T06:34:29.602Z,61.92
2023-05-04T06:36:57.803Z,61.36
2023-05-04T06:39:25.735Z,61.47
2023-05-04T06:41:55.073Z,61.44
2023-05-04T06:44:23.052Z,61.09
2023-05-04T06:46:51.338Z,60.91
2023-05-04T06:49:20.666Z,61.02
2023-05-04T06:51:48.580Z,61.54
2023-05-04T06:54:16.473Z,60.74
2023-05-04T06:56:44.363Z,60.45
2023-05-04T06:59:12.303Z,60.54
2023-05-04T07:01:40.385Z,60.82
2023-05-04T07:04:08.412Z,60.65
2023-05-04T07:06:39.485Z,60.49
2023-05-04T07:09:08.355Z,60.19
2023-05-04T07:11:36.252Z,59.39
2023-05-04T07:14:04.163Z,59.53
2023-05-04T07:16:33.125Z,59.56
2023-05-04T07:19:01.126Z,59.25
2023-05-04T07:21:29.816Z,58.95
2023-05-04T07:23:59.235Z,59.10
2023-05-04T07:26:27.125Z,59.11
2023-05-04T07:28:55.116Z,59.94
2023-05-04T07:31:23.109Z,58.60
2023-05-04T07:33:51.230Z,58.59
2023-05-04T07:36:19.202Z,57.89
2023-05-04T07:38:47.096Z,58.07
2023-05-04T07:41:16.422Z,57.58
2023-05-04T07:43:47.329Z,57.88
2023-05-04T07:46:15.381Z,57.31
2023-05-04T07:48:43.316Z,57.27
2023-05-04T07:51:15.114Z,57.01
2023-05-04T07:53:43.581Z,57.02
2023-05-04T07:56:12.680Z,57.12
2023-05-04T07:58:42.348Z,56.24
2023-05-04T08:01:10.261Z,56.33
2023-05-04T08:03:38.133Z,55.92
2023-05-04T08:06:06.177Z,55.77
2023-05-04T08:08:34.247Z,55.69
2023-05-04T08:11:15.993Z,55.35
2023-05-04T08:13:49.334Z,55.06
2023-05-04T08:16:17.527Z,55.51
2023-05-04T08:18:45.435Z,55.22
2023-05-04T08:21:13.380Z,55.30
2023-05-04T08:23:42.244Z,55.25
2023-05-04T08:26:10.713Z,54.34
2023-05-04T08:28:40.197Z,54.73
2023-05-04T08:31:09.518Z,54.30
2023-05-04T08:33:37.470Z,53.74
2023-05-04T08:36:05.788Z,53.54
2023-05-04T08:38:33.782Z,52.92
2023-05-04T08:41:03.761Z,53.86
2023-05-04T08:43:32.173Z,53.13
2023-05-04T08:46:00.182Z,53.06
2023-05-04T08:48:29.552Z,53.30
2023-05-04T08:50:58.978Z,53.08
2023-05-04T08:53:28.144Z,53.35
2023-05-04T08:55:56.937Z,53.36
2023-05-04T08:58:26.193Z,53.53
2023-05-04T09:00:54.273Z,53.26
2023-05-04T09:03:22.389Z,52.10
2023-05-04T09:05:53.066Z,51.76
2023-05-04T09:08:21.623Z,51.69
2023-05-04T09:10:49.637Z,51.48
2023-05-04T09:13:18.019Z,51.60
2023-05-04T09:15:55.708Z,50.96
2023-05-04T09:18:24.580Z,50.89
2023-05-04T09:20:53.891Z,50.65
2023-05-04T09:23:26.236Z,50.92
2023-05-04T09:25:54.852Z,50.00
2023-05-04T09:28:34.368Z,49.20
2023-05-04T09:31:02.828Z,50.09
2023-05-04T09:33:32.105Z,48.97
2023-05-04T09:36:14.274Z,48.86
2023-05-04T09:38:42.402Z,48.26
2023-05-04T09:41:10.288Z,48.20
2023-05-04T09:43:39.518Z,47.13
2023-05-04T09:46:08.653Z,47.35
2023-05-04T09:48:37.026Z,47.68
2023-05-04T09:51:07.347Z,47.67
2023-05-04T09:53:37.247Z,47.40
2023-05-04T09:56:11.331Z,47.51
2023-05-04T09:58:40.221Z,47.81
2023-05-04T10:01:09.121Z,44.91
2023-05-04T10:03:37.298Z,47.83
2023-05-04T10:06:09.102Z,47.02
2023-05-04T10:08:37.396Z,46.88
2023-05-04T10:11:07.694Z,46.58
2023-05-04T10:13:35.595Z,45.89
2023-05-04T10:16:12.467Z,46.10
2023-05-04T10:18:51.030Z,45.52
2023-05-04T10:21:27.220Z,46.48
2023-05-04T10:24:16.930Z,46.22
2023-05-04T10:27:00.593Z,46.57
2023-05-04T10:29:31.036Z,45.77
2023-05-04T10:31:59.623Z,46.01
2023-05-04T10:34:29.521Z,45.97
2023-05-04T10:36:59.181Z,45.81
2023-05-04T10:39:28.861Z,45.66
2023-05-04T10:42:01.661Z,47.17
2023-05-04T10:44:30.191Z,44.48
2023-05-04T10:46:59.902Z,45.10
2023-05-04T10:49:28.082Z,46.20
2023-05-04T10:52:16.240Z,45.48
2023-05-04T10:54:44.462Z,45.00
2023-05-04T10:57:16.508Z,46.14
2023-05-04T10:59:57.167Z,45.71
2023-05-04T11:02:31.778Z,43.14
2023-05-04T11:05:04.423Z,45.96
2023-05-04T11:07:38.227Z,47.39
2023-05-04T11:10:08.364Z,42.05
2023-05-04T11:12:36.872Z,46.44
2023-05-04T11:15:06.858Z,46.27
2023-05-04T11:17:35.157Z,44.49
2023-05-04T11:20:03.117Z,43.92
2023-05-04T11:22:33.306Z,43.79
2023-05-04T11:25:02.839Z,44.56
2023-05-04T11:27:31.326Z,40.01
2023-05-04T11:30:01.033Z,42.45
2023-05-04T11:32:36.128Z,43.82
2023-05-04T11:35:05.118Z,44.33
2023-05-04T11:37:39.580Z,43.46
2023-05-04T11:40:12.988Z,42.51
2023-05-04T11:42:41.429Z,44.14
2023-05-04T11:45:13.098Z,43.40
2023-05-04T11:47:41.438Z,42.80
2023-05-04T11:50:12.005Z,43.32
2023-05-04T11:52:41.110Z,42.96
2023-05-04T11:55:11.934Z,42.69
2023-05-04T11:57:40.430Z,43.32
2023-05-04T12:00:09.961Z,43.74
2023-05-04T12:02:37.992Z,42.87
2023-05-04T12:05:13.807Z,42.54
2023-05-04T12:07:42.246Z,41.92
2023-05-04T12:10:11.926Z,44.61
2023-05-04T12:12:39.864Z,37.88
2023-05-04T12:15:08.995Z,37.98
2023-05-04T12:17:43.648Z,41.33
2023-05-04T12:20:12.874Z,39.24
2023-05-04T12:22:40.775Z,41.10
2023-05-04T12:25:11.224Z,39.79
2023-05-04T12:27:41.770Z,41.54
2023-05-04T12:30:11.155Z,40.74
2023-05-04T12:32:39.273Z,40.92
2023-05-04T12:35:08.117Z,39.99
2023-05-04T12:37:36.421Z,39.04
2023-05-04T12:40:11.361Z,41.44
2023-05-04T12:42:46.894Z,39.72
2023-05-04T12:45:16.131Z,40.64
2023-05-04T12:47:44.081Z,40.86
2023-05-04T12:50:12.181Z,41.74
2023-05-04T12:52:41.292Z,40.11
2023-05-04T12:55:09.715Z,40.93
2023-05-04T12:57:37.626Z,40.30
2023-05-04T13:00:10.023Z,39.92
2023-05-04T13:02:38.425Z,40.58
2023-05-04T13:05:08.208Z,40.14
2023-05-04T13:07:36.468Z,40.72
2023-05-04T13:10:04.814Z,40.33
2023-05-04T13:12:33.086Z,40.57
2023-05-04T13:15:00.986Z,39.63
2023-05-04T13:17:33.797Z,39.26
2023-05-04T13:20:04.735Z,38.14
2023-05-04T13:22:32.913Z,37.85
2023-05-04T13:25:00.934Z,37.90
2023-05-04T13:27:29.348Z,38.18
2023-05-04T13:29:58.452Z,37.52
2023-05-04T13:32:27.828Z,36.25
2023-05-04T13:34:57.118Z,38.39
2023-05-04T13:37:25.038Z,36.26
2023-05-04T13:39:52.971Z,37.81
2023-05-04T13:42:21.159Z,36.88
2023-05-04T13:44:49.119Z,38.24
2023-05-04T13:47:17.641Z,36.18
2023-05-04T13:49:45.715Z,38.62
2023-05-04T13:52:15.004Z,39.36
2023-05-04T13:54:42.884Z,38.33
2023-05-04T13:57:10.884Z,35.10
2023-05-04T13:59:38.802Z,37.85
2023-05-04T14:02:06.805Z,38.53
2023-05-04T14:04:35.740Z,37.96
2023-05-04T14:07:05.450Z,39.28
2023-05-04T14:09:34.744Z,35.43
2023-05-04T14:12:02.738Z,39.71
2023-05-04T14:14:30.675Z,39.77
2023-05-04T14:16:58.745Z,37.26
2023-05-04T14:19:28.477Z,40.45
2023-05-04T14:21:56.422Z,40.95
2023-05-04T14:24:25.613Z,40.15
2023-05-04T14:26:54.892Z,40.01
2023-05-04T14:29:22.832Z,35.80
2023-05-04T14:31:50.711Z,40.87
2023-05-04T14:34:18.733Z,38.74
2023-05-04T14:36:46.664Z,41.04
2023-05-04T14:39:14.542Z,38.87
2023-05-04T14:41:42.508Z,39.63
2023-05-04T14:44:11.899Z,38.60
2023-05-04T14:46:39.867Z,38.89
2023-05-04T14:49:08.410Z,38.58
2023-05-04T14:51:36.839Z,39.55
2023-05-04T14:54:04.907Z,39.53
2023-05-04T14:56:32.805Z,39.15
2023-05-04T14:59:01.723Z,40.26
2023-05-04T15:01:31.269Z,42.02
2023-05-04T15:03:59.404Z,40.73
2023-05-04T15:06:32.654Z,39.75
2023-05-04T15:09:00.720Z,40.83
2023-05-04T15:11:29.235Z,41.85
2023-05-04T15:13:58.913Z,39.69
2023-05-04T15:16:29.883Z,38.36
2023-05-04T15:19:00.048Z,41.29
2023-05-04T15:21:28.349Z,40.69
2023-05-04T15:23:56.264Z,41.02
2023-05-04T15:26:24.296Z,38.96
2023-05-04T15:28:53.964Z,40.40
2023-05-04T15:31:22.515Z,38.48
2023-05-04T15:33:50.455Z,37.95
2023-05-04T15:36:19.754Z,38.20
2023-05-04T15:38:47.737Z,36.90
2023-05-04T15:41:15.890Z,37.49
2023-05-04T15:43:43.778Z,36.57
2023-05-04T15:46:11.763Z,37.45
2023-05-04T15:48:39.709Z,36.91
2023-05-04T15:51:10.856Z,37.50
2023-05-04T15:53:40.170Z,35.60
2023-05-04T15:56:08.861Z,35.49
2023-05-04T15:58:37.323Z,35.33
2023-05-04T16:01:09.219Z,36.88
2023-05-04T16:03:38.664Z,37.27
2023-05-04T16:06:08.941Z,35.30
2023-05-04T16:08:37.417Z,34.27
2023-05-04T16:11:07.781Z,37.36
2023-05-04T16:13:35.879Z,36.29
2023-05-04T16:16:03.868Z,37.97
2023-05-04T16:18:31.814Z,37.08
2023-05-04T16:20:59.743Z,34.14
2023-05-04T16:23:28.103Z,33.53
2023-05-04T16:25:56.218Z,34.93
2023-05-04T16:28:25.516Z,34.88
2023-05-04T16:30:53.436Z,35.76
2023-05-04T16:33:21.468Z,37.04
2023-05-04T16:35:49.412Z,37.46
2023-05-04T16:38:19.478Z,37.06
2023-05-04T16:40:47.455Z,36.77
2023-05-04T16:43:15.396Z,38.03
2023-05-04T16:45:44.723Z,38.54
2023-05-04T16:48:12.631Z,37.64
2023-05-04T16:50:40.511Z,38.08
2023-05-04T16:53:08.452Z,38.19
2023-05-04T16:55:37.255Z,39.71
2023-05-04T16:58:05.145Z,39.00
2023-05-04T17:00:33.170Z,37.76
2023-05-04T17:03:02.502Z,39.30
2023-05-04T17:05:30.420Z,41.10
2023-05-04T17:07:58.368Z,41.89
2023-05-04T17:10:26.251Z,39.52
2023-05-04T17:12:54.653Z,37.98
2023-05-04T17:15:22.679Z,40.07
2023-05-04T17:17:50.693Z,40.56
2023-05-04T17:20:21.696Z,42.91
2023-05-04T17:22:51.473Z,42.68
2023-05-04T17:25:19.550Z,42.43
2023-05-04T17:27:47.802Z,42.92
2023-05-04T17:30:16.007Z,43.44
2023-05-04T17:32:43.943Z,44.75
2023-05-04T17:35:24.066Z,43.50
2023-05-04T17:37:57.865Z,44.40
2023-05-04T17:40:26.242Z,44.60
2023-05-04T17:42:54.355Z,45.34
2023-05-04T17:45:22.301Z,44.85
2023-05-04T17:47:51.790Z,46.79
2023-05-04T17:50:47.344Z,45.75
2023-05-04T17:53:16.742Z,47.15
2023-05-04T17:55:44.681Z,46.46
2023-05-04T17:58:12.598Z,46.33
2023-05-04T18:00:40.584Z,46.72
2023-05-04T18:03:08.510Z,46.75
2023-05-04T18:05:36.537Z,47.50
2023-05-04T18:08:04.697Z,47.51
2023-05-04T18:10:34.144Z,47.05
2023-05-04T18:13:02.135Z,48.18
2023-05-04T18:15:30.145Z,47.82
2023-05-04T18:17:58.288Z,47.37
2023-05-04T18:20:26.530Z,48.34
2023-05-04T18:22:54.448Z,48.04
2023-05-04T18:25:22.583Z,48.45
2023-05-04T18:27:52.266Z,47.96
2023-05-04T18:30:20.146Z,48.60
2023-05-04T18:32:48.078Z,49.22
2023-05-04T18:35:17.203Z,48.08
2023-05-04T18:37:45.113Z,49.71
2023-05-04T18:40:14.086Z,49.22
2023-05-04T18:42:42.024Z,49.66
2023-05-04T18:45:12.686Z,49.59
2023-05-04T18:47:40.662Z,49.99
2023-05-04T18:50:09.894Z,49.46
2023-05-04T18:52:37.959Z,49.72
2023-05-04T18:55:06.617Z,49.61
2023-05-04T18:57:34.579Z,50.18
2023-05-04T19:00:02.512Z,50.46
2023-05-04T19:02:33.356Z,51.04
2023-05-04T19:05:01.316Z,50.78
2023-05-04T19:07:29.178Z,51.57
2023-05-04T19:09:57.084Z,52.13
2023-05-04T19:12:25.208Z,51.70
2023-05-04T19:14:53.121Z,51.84
2023-05-04T19:17:21.161Z,51.46
2023-05-04T19:19:50.444Z,52.39
2023-05-04T19:22:18.330Z,51.92
2023-05-04T19:28:15.270Z,51.94
2023-05-04T19:30:43.212Z,51.98
2023-05-04T19:33:17.817Z,52.13
2023-05-04T19:35:47.688Z,52.47
2023-05-04T19:38:16.014Z,52.43
2023-05-04T19:40:44.150Z,52.98
2023-05-04T19:43:12.071Z,52.79
2023-05-04T19:45:40.961Z,53.13
2023-05-04T19:48:08.919Z,52.33
2023-05-04T19:50:36.862Z,52.26
2023-05-04T19:53:06.150Z,52.87
2023-05-04T19:55:34.211Z,53.10
2023-05-04T19:58:02.180Z,53.27
2023-05-04T20:00:30.220Z,52.58
2023-05-04T20:02:58.921Z,52.59
2023-05-04T20:05:26.855Z,53.43
2023-05-04T20:07:54.798Z,53.08
2023-05-04T20:10:24.292Z,53.33
2023-05-04T20:12:52.281Z,53.55
2023-05-04T20:15:20.368Z,53.56
2023-05-04T20:17:48.458Z,54.02
2023-05-04T20:20:20.127Z,54.57
2023-05-04T20:22:49.136Z,54.07
2023-05-04T20:25:17.124Z,54.24
2023-05-04T20:27:48.570Z,54.12
2023-05-04T20:30:18.033Z,54.81
2023-05-04T20:32:45.967Z,54.13
2023-05-04T20:35:13.871Z,55.06
2023-05-04T20:37:41.819Z,54.38
2023-05-04T20:40:10.916Z,54.58
2023-05-04T20:42:39.255Z,54.93
2023-05-04T20:45:09.965Z,55.37
2023-05-04T20:47:37.956Z,55.70
2023-05-04T20:50:07.017Z,56.06
2023-05-04T20:52:35.127Z,55.85
2023-05-04T20:55:03.103Z,55.35
2023-05-04T20:57:31.020Z,56.24
2023-05-04T20:59:59.154Z,55.32
2023-05-04T21:02:28.689Z,54.95
2023-05-04T21:04:56.617Z,55.77
2023-05-04T21:07:24.539Z,55.69
2023-05-04T21:09:57.354Z,55.69
2023-05-04T21:12:25.888Z,55.80
2023-05-04T21:14:53.789Z,56.42
2023-05-04T21:17:21.739Z,56.61
2023-05-04T21:19:51.068Z,56.64
2023-05-04T21:22:18.991Z,55.88
2023-05-04T21:24:47.378Z,56.32
2023-05-04T21:27:15.257Z,56.23
2023-05-04T21:29:43.177Z,57.16
2023-05-04T21:32:11.054Z,56.54
2023-05-04T21:34:38.970Z,55.94
2023-05-04T21:37:08.274Z,56.95
2023-05-04T21:39:36.186Z,57.29
2023-05-04T21:42:04.289Z,57.05
2023-05-04T21:44:32.564Z,58.64
2023-05-04T21:47:01.217Z,57.85
2023-05-04T21:49:29.205Z,57.50
2023-05-04T21:51:57.088Z,57.06
2023-05-04T21:54:26.385Z,58.76
2023-05-04T21:56:54.608Z,57.39
2023-05-04T21:59:22.500Z,57.82
2023-05-04T22:01:50.401Z,58.28
2023-05-04T22:04:18.342Z,57.25
2023-05-04T22:06:47.492Z,56.95
2023-05-04T22:09:15.995Z,57.26
2023-05-04T22:11:45.480Z,57.50
2023-05-04T22:14:13.427Z,57.46
2023-05-04T22:16:41.466Z,57.29
2023-05-04T22:19:09.515Z,58.14
2023-05-04T22:21:39.762Z,57.28
2023-05-04T22:24:08.122Z,57.70
2023-05-04T22:26:36.097Z,58.08
2023-05-04T22:29:05.449Z,57.83
2023-05-04T22:31:33.392Z,57.64
2023-05-04T22:34:01.276Z,57.73
2023-05-04T22:36:29.170Z,59.62
2023-05-04T22:38:57.070Z,57.82
2023-05-04T22:41:25.379Z,57.80
2023-05-04T22:43:53.282Z,58.63
2023-05-04T22:46:22.607Z,58.75
2023-05-04T22:48:50.648Z,57.69
2023-05-04T22:51:18.556Z,57.65
2023-05-04T22:53:46.475Z,57.94
2023-05-04T22:56:14.395Z,58.10
2023-05-04T22:58:42.544Z,57.90
2023-05-04T23:01:11.675Z,56.72
2023-05-04T23:03:41.340Z,56.99
2023-05-04T23:06:09.836Z,56.99
2023-05-04T23:08:38.675Z,57.22
2023-05-04T23:11:06.665Z,56.91
2023-05-04T23:13:34.803Z,57.39
2023-05-04T23:16:03.662Z,57.93
2023-05-04T23:18:33.057Z,58.12
2023-05-04T23:21:02.501Z,58.14
2023-05-04T23:23:30.380Z,57.46
2023-05-04T23:25:58.423Z,57.60
2023-05-04T23:28:26.351Z,57.28
2023-05-04T23:30:55.740Z,57.53
2023-05-04T23:33:23.741Z,57.66
2023-05-04T23:35:55.396Z,57.59
2023-05-04T23:38:24.669Z,57.37
2023-05-04T23:40:53.813Z,57.48
2023-05-04T23:43:22.706Z,57.26
2023-05-04T23:45:50.682Z,57.62
2023-05-04T23:48:18.648Z,57.31
2023-05-04T23:50:53.366Z,56.62
2023-05-04T23:53:21.268Z,56.83
2023-05-04T23:55:57.840Z,56.50
2023-05-04T23:58:25.866Z,56.50
